createdAt,value
2022-10-17T00:02:24.673Z,21.75
2022-10-17T00:04:51.460Z,23.00
2022-10-17T00:07:18.266Z,22.05
2022-10-17T00:09:45.030Z,23.42
2022-10-17T00:12:11.867Z,23.23
2022-10-17T00:14:39.084Z,22.85
2022-10-17T00:17:06.072Z,22.13
2022-10-17T00:19:32.834Z,22.75
2022-10-17T00:21:59.622Z,22.20
2022-10-17T00:24:26.402Z,23.92
2022-10-17T00:26:53.222Z,22.63
2022-10-17T00:29:20.131Z,23.88
2022-10-17T00:31:48.026Z,23.13
2022-10-17T00:34:14.971Z,20.52
2022-10-17T00:36:41.781Z,21.90
2022-10-17T00:39:09.549Z,21.88
2022-10-17T00:41:36.392Z,24.33
2022-10-17T00:44:27.097Z,23.80
2022-10-17T00:46:54.110Z,25.67
2022-10-17T00:49:23.385Z,23.50
2022-10-17T00:53:31.315Z,23.50
2022-10-17T00:56:01.908Z,23.25
2022-10-17T00:58:28.875Z,23.52
2022-10-17T01:00:55.638Z,24.00
2022-10-17T01:03:23.113Z,23.13
2022-10-17T01:05:50.694Z,22.48
2022-10-17T01:08:18.004Z,24.08
2022-10-17T01:11:12.283Z,22.27
2022-10-17T01:14:00.556Z,23.73
2022-10-17T01:16:36.391Z,23.35
2022-10-17T01:19:27.960Z,23.08
2022-10-17T01:22:01.749Z,23.48
2022-10-17T01:24:49.263Z,21.63
2022-10-17T01:27:35.534Z,21.88
2022-10-17T01:30:12.364Z,20.70
2022-10-17T01:32:47.711Z,19.30
2022-10-17T01:35:23.512Z,17.77
2022-10-17T01:38:06.670Z,21.63
2022-10-17T01:40:58.665Z,19.27
2022-10-17T01:43:40.456Z,19.80
2022-10-17T01:46:18.272Z,20.90
2022-10-17T01:48:46.627Z,22.45
2022-10-17T01:51:18.844Z,22.67
2022-10-17T01:54:02.286Z,22.02
2022-10-17T01:56:33.126Z,22.85
2022-10-17T01:59:22.417Z,23.55
2022-10-17T02:01:53.186Z,22.63
2022-10-17T02:04:21.272Z,22.45
2022-10-17T02:06:48.151Z,22.08
2022-10-17T02:09:19.991Z,23.45
2022-10-17T02:12:09.783Z,21.83
2022-10-17T02:15:00.963Z,20.70
2022-10-17T02:17:49.677Z,22.58
2022-10-17T02:20:47.473Z,18.95
2022-10-17T02:23:27.926Z,20.88
2022-10-17T02:26:14.819Z,22.88
2022-10-17T02:28:52.968Z,21.02
2022-10-17T02:31:29.106Z,20.67
2022-10-17T02:34:01.217Z,20.92
2022-10-17T02:36:39.076Z,21.38
2022-10-17T02:39:08.255Z,22.98
2022-10-17T02:41:38.301Z,23.38
2022-10-17T02:44:06.833Z,23.65
2022-10-17T02:46:35.625Z,22.75
2022-10-17T02:49:26.018Z,24.40
2022-10-17T02:51:59.467Z,24.30
2022-10-17T02:54:45.205Z,23.25
2022-10-17T02:57:21.647Z,22.52
2022-10-17T02:59:50.281Z,23.70
2022-10-17T03:02:17.970Z,25.30
2022-10-17T03:04:46.572Z,23.73
2022-10-17T03:07:13.579Z,21.02
2022-10-17T03:09:40.416Z,24.23
2022-10-17T03:12:07.506Z,25.35
2022-10-17T03:14:35.258Z,25.40
2022-10-17T03:17:03.651Z,26.35
2022-10-17T03:19:31.241Z,25.27
2022-10-17T03:21:58.129Z,24.95
2022-10-17T03:24:25.042Z,23.75
2022-10-17T03:26:52.012Z,25.88
2022-10-17T03:29:18.989Z,26.90
2022-10-17T03:31:47.222Z,28.55
2022-10-17T03:34:16.784Z,28.40
2022-10-17T03:36:43.809Z,28.83
2022-10-17T03:39:11.015Z,31.00
2022-10-17T03:41:38.171Z,31.33
2022-10-17T03:44:05.293Z,28.92
2022-10-17T03:46:32.151Z,28.83
2022-10-17T03:49:00.631Z,29.10
2022-10-17T03:51:27.768Z,27.67
2022-10-17T03:54:01.544Z,28.05
2022-10-17T03:56:28.613Z,29.95
2022-10-17T03:59:04.357Z,28.90
2022-10-17T04:01:35.235Z,25.35
2022-10-17T04:04:02.153Z,28.60
2022-10-17T04:06:32.354Z,28.02
2022-10-17T04:09:00.389Z,29.85
2022-10-17T04:11:34.533Z,28.95
2022-10-17T04:14:02.638Z,28.13
2022-10-17T04:16:30.358Z,28.65
2022-10-17T04:19:03.207Z,28.60
2022-10-17T04:21:39.873Z,30.83
2022-10-17T04:24:11.755Z,28.58
2022-10-17T04:27:04.599Z,28.30
2022-10-17T04:29:34.108Z,30.00
2022-10-17T04:32:06.689Z,28.45
2022-10-17T04:34:43.386Z,29.48
2022-10-17T04:37:10.547Z,27.25
2022-10-17T04:39:37.839Z,28.20
2022-10-17T04:42:05.294Z,31.20
2022-10-17T04:44:33.656Z,30.00
2022-10-17T04:47:01.331Z,31.80
2022-10-17T04:49:28.668Z,30.55
2022-10-17T04:52:04.111Z,29.88
2022-10-17T04:54:37.418Z,31.52
2022-10-17T04:57:09.747Z,29.75
2022-10-17T04:59:37.040Z,31.10
2022-10-17T05:02:15.271Z,31.17
2022-10-17T05:04:42.221Z,32.33
2022-10-17T05:07:10.637Z,32.35
2022-10-17T05:09:46.098Z,32.60
2022-10-17T05:12:13.595Z,31.75
2022-10-17T05:14:44.161Z,31.15
2022-10-17T05:17:11.135Z,31.35
2022-10-17T05:19:38.883Z,31.17
2022-10-17T05:22:07.171Z,31.60
2022-10-17T05:24:33.977Z,34.72
2022-10-17T05:27:00.875Z,32.67
2022-10-17T05:29:28.417Z,32.47
2022-10-17T05:32:04.358Z,35.70
2022-10-17T05:34:31.156Z,33.63
2022-10-17T05:36:58.137Z,35.22
2022-10-17T05:39:24.995Z,33.85
2022-10-17T05:41:52.724Z,33.83
2022-10-17T05:44:19.660Z,31.52
2022-10-17T05:46:53.039Z,33.85
2022-10-17T05:49:32.609Z,34.75
2022-10-17T05:52:07.380Z,36.28
2022-10-17T05:54:44.252Z,36.58
2022-10-17T05:57:11.945Z,36.25
2022-10-17T05:59:40.365Z,36.90
2022-10-17T06:02:13.123Z,37.50
2022-10-17T06:04:45.558Z,37.08
2022-10-17T06:07:13.680Z,34.85
2022-10-17T06:09:42.948Z,33.58
2022-10-17T06:12:10.376Z,34.05
2022-10-17T06:14:37.260Z,31.70
2022-10-17T06:17:06.230Z,32.88
2022-10-17T06:19:33.060Z,31.88
2022-10-17T06:21:59.922Z,32.78
2022-10-17T06:24:28.141Z,33.97
2022-10-17T06:26:55.060Z,33.42
2022-10-17T06:29:22.546Z,36.53
2022-10-17T06:31:51.881Z,34.95
2022-10-17T06:34:19.833Z,35.20
2022-10-17T06:36:47.207Z,35.63
2022-10-17T06:39:14.646Z,37.67
2022-10-17T06:41:47.339Z,35.95
2022-10-17T06:44:18.218Z,36.20
2022-10-17T06:47:03.562Z,38.55
2022-10-17T06:49:34.239Z,39.13
2022-10-17T06:52:17.537Z,38.38
2022-10-17T06:55:05.585Z,36.10
2022-10-17T06:57:51.798Z,37.15
2022-10-17T07:00:42.074Z,35.63
2022-10-17T07:03:11.159Z,34.90
2022-10-17T07:05:38.466Z,34.35
2022-10-17T07:08:05.691Z,33.35
2022-10-17T07:10:38.139Z,34.30
2022-10-17T07:13:07.054Z,36.17
2022-10-17T07:15:37.213Z,35.22
2022-10-17T07:18:04.786Z,32.53
2022-10-17T07:20:32.110Z,34.85
2022-10-17T07:22:58.902Z,33.85
2022-10-17T07:25:26.089Z,34.42
2022-10-17T07:27:57.481Z,32.55
2022-10-17T07:30:24.941Z,33.05
2022-10-17T07:33:03.828Z,32.25
2022-10-17T07:35:31.375Z,32.05
2022-10-17T07:37:58.135Z,31.85
2022-10-17T07:40:25.146Z,30.95
2022-10-17T07:42:52.709Z,31.77
2022-10-17T07:45:20.764Z,32.55
2022-10-17T07:47:47.825Z,30.75
2022-10-17T07:50:16.032Z,32.08
2022-10-17T07:52:43.312Z,32.85
2022-10-17T07:55:10.168Z,31.25
2022-10-17T07:57:37.006Z,31.83
2022-10-17T08:00:04.156Z,32.35
2022-10-17T08:02:39.731Z,32.58
2022-10-17T08:05:09.366Z,31.17
2022-10-17T08:07:36.519Z,32.05
2022-10-17T08:10:04.183Z,31.38
2022-10-17T08:12:34.304Z,30.80
2022-10-17T08:15:01.859Z,31.10
2022-10-17T08:17:28.808Z,31.33
2022-10-17T08:19:55.561Z,29.90
2022-10-17T08:22:22.878Z,30.02
2022-10-17T08:24:49.640Z,30.35
2022-10-17T08:27:21.518Z,28.20
2022-10-17T08:29:48.851Z,29.63
2022-10-17T08:32:15.755Z,27.25
2022-10-17T08:34:42.618Z,27.17
2022-10-17T08:39:42.112Z,29.17
2022-10-17T08:42:08.843Z,30.40
2022-10-17T08:45:03.486Z,33.65
2022-10-17T08:47:36.639Z,36.33
2022-10-17T08:50:07.812Z,35.33
2022-10-17T08:52:54.175Z,31.50
2022-10-17T08:55:48.881Z,27.60
2022-10-17T08:58:20.198Z,26.05
2022-10-17T09:01:13.735Z,26.70
2022-10-17T09:04:18.197Z,25.83
2022-10-17T09:06:50.304Z,25.55
2022-10-17T09:09:55.175Z,25.23
2022-10-17T09:12:42.389Z,23.77
2022-10-17T09:15:40.145Z,24.60
2022-10-17T09:18:09.887Z,22.85
2022-10-17T09:21:25.232Z,20.48
2022-10-17T09:24:03.799Z,22.63
2022-10-17T09:26:36.960Z,23.35
2022-10-17T09:29:16.912Z,24.52
2022-10-17T09:32:00.352Z,24.98
2022-10-17T09:34:29.199Z,24.27
2022-10-17T09:36:58.718Z,24.40
2022-10-17T09:39:26.708Z,25.02
2022-10-17T09:41:58.901Z,25.70
2022-10-17T09:44:36.812Z,25.77
2022-10-17T09:47:34.619Z,23.92
2022-10-17T09:50:02.150Z,24.00
2022-10-17T09:52:36.749Z,23.98
2022-10-17T09:55:39.050Z,23.65
2022-10-17T09:58:07.658Z,24.95
2022-10-17T10:00:38.145Z,25.70
2022-10-17T10:03:14.851Z,25.92
2022-10-17T10:05:43.419Z,25.13
2022-10-17T10:08:16.467Z,27.23
2022-10-17T10:10:44.714Z,28.15
2022-10-17T10:13:14.115Z,29.05
2022-10-17T10:15:45.894Z,27.90
2022-10-17T10:18:24.984Z,27.85
2022-10-17T10:21:16.906Z,28.33
2022-10-17T10:23:45.423Z,28.63
2022-10-17T10:26:27.434Z,30.65
2022-10-17T10:29:24.971Z,31.90
2022-10-17T10:31:53.461Z,32.90
2022-10-17T10:34:28.829Z,31.45
2022-10-17T10:36:55.722Z,32.70
2022-10-17T10:39:34.863Z,32.72
2022-10-17T10:42:05.735Z,35.28
2022-10-17T10:44:34.329Z,35.90
2022-10-17T10:47:20.486Z,35.90
2022-10-17T10:49:47.829Z,36.20
2022-10-17T10:52:47.780Z,35.47
2022-10-17T10:55:40.298Z,33.70
2022-10-17T10:58:22.555Z,33.20
2022-10-17T11:00:50.870Z,34.70
2022-10-17T11:03:29.176Z,34.65
2022-10-17T11:06:06.212Z,35.85
2022-10-17T11:08:35.545Z,34.95
2022-10-17T11:11:13.828Z,32.88
2022-10-17T11:13:48.574Z,32.35
2022-10-17T11:16:31.301Z,34.50
2022-10-17T11:19:21.922Z,34.20
2022-10-17T11:22:15.004Z,34.75
2022-10-17T11:24:57.157Z,32.13
2022-10-17T11:27:25.970Z,33.72
2022-10-17T11:29:52.850Z,32.90
2022-10-17T11:32:21.427Z,32.63
2022-10-17T11:35:01.950Z,32.90
2022-10-17T11:37:44.174Z,32.65
2022-10-17T11:40:24.400Z,32.65
2022-10-17T11:43:00.067Z,33.97
2022-10-17T11:45:32.425Z,33.88
2022-10-17T11:48:06.748Z,33.92
2022-10-17T11:53:29.991Z,33.63
2022-10-17T11:56:00.473Z,33.92
2022-10-17T11:58:39.149Z,32.85
2022-10-17T12:01:33.446Z,34.10
2022-10-17T12:04:42.791Z,34.47
2022-10-17T12:07:25.151Z,34.20
2022-10-17T12:10:04.107Z,32.95
2022-10-17T12:12:34.351Z,31.60
2022-10-17T12:15:13.378Z,32.60
2022-10-17T12:17:46.616Z,33.47
2022-10-17T12:20:25.286Z,31.70
2022-10-17T12:23:04.356Z,33.10
2022-10-17T12:25:34.597Z,33.80
2022-10-17T12:28:07.348Z,34.20
2022-10-17T12:30:34.951Z,34.47
2022-10-17T12:33:06.642Z,33.22
2022-10-17T12:35:36.077Z,31.23
2022-10-17T12:38:16.268Z,30.10
2022-10-17T12:40:48.424Z,30.85
2022-10-17T12:43:15.650Z,31.42
2022-10-17T12:45:53.749Z,30.95
2022-10-17T12:48:40.707Z,27.73
2022-10-17T12:51:34.739Z,28.50
2022-10-17T12:54:09.509Z,27.77
2022-10-17T12:56:47.770Z,26.98
2022-10-17T12:59:21.747Z,25.58
2022-10-17T13:01:53.537Z,24.65
2022-10-17T13:04:21.326Z,24.80
2022-10-17T13:06:57.264Z,25.20
2022-10-17T13:09:33.293Z,24.80
2022-10-17T13:12:03.738Z,26.33
2022-10-17T13:14:33.054Z,26.13
2022-10-17T13:17:02.377Z,28.77
2022-10-17T13:19:31.951Z,26.90
2022-10-17T13:22:07.066Z,29.45
2022-10-17T13:24:39.976Z,27.55
2022-10-17T13:27:29.553Z,27.02
2022-10-17T13:29:58.425Z,25.65
2022-10-17T13:32:27.154Z,27.23
2022-10-17T13:35:09.103Z,28.23
2022-10-17T13:37:37.245Z,28.27
2022-10-17T13:40:17.561Z,29.77
2022-10-17T13:42:52.890Z,27.33
2022-10-17T13:45:27.338Z,27.27
2022-10-17T13:47:54.998Z,29.02
2022-10-17T13:50:44.140Z,28.70
2022-10-17T13:53:17.809Z,28.58
2022-10-17T13:56:09.555Z,28.17
2022-10-17T13:59:15.557Z,26.13
2022-10-17T14:01:42.575Z,24.65
2022-10-17T14:04:19.267Z,26.58
2022-10-17T14:06:51.232Z,26.63
2022-10-17T14:09:26.483Z,26.60
2022-10-17T14:12:20.896Z,25.23
2022-10-17T14:15:09.804Z,24.77
2022-10-17T14:17:38.604Z,23.58
2022-10-17T14:20:40.761Z,23.27
2022-10-17T14:23:21.413Z,22.42
2022-10-17T14:25:46.843Z,24.00
2022-10-17T14:28:16.919Z,24.30
2022-10-17T14:30:56.785Z,25.33
2022-10-17T14:33:30.680Z,25.02
2022-10-17T14:36:00.113Z,24.92
2022-10-17T14:38:28.802Z,26.00
2022-10-17T14:41:23.611Z,26.40
2022-10-17T14:43:58.098Z,24.95
2022-10-17T14:46:25.785Z,26.65
2022-10-17T14:49:05.028Z,25.90
2022-10-17T14:51:40.224Z,24.65
2022-10-17T14:54:25.957Z,24.85
2022-10-17T14:56:54.383Z,25.23
2022-10-17T14:59:51.731Z,23.75
2022-10-17T15:02:12.008Z,24.95
2022-10-17T15:04:38.836Z,24.95
2022-10-17T15:07:06.172Z,24.42
2022-10-17T15:09:33.037Z,26.02
2022-10-17T15:12:02.563Z,25.98
2022-10-17T15:14:29.458Z,24.58
2022-10-17T15:16:56.366Z,23.95
2022-10-17T15:19:23.238Z,24.42
2022-10-17T15:21:50.083Z,23.27
2022-10-17T15:24:16.944Z,24.00
2022-10-17T15:26:43.872Z,23.67
2022-10-17T15:29:15.409Z,22.77
2022-10-17T15:31:42.285Z,22.83
2022-10-17T15:34:09.236Z,22.90
2022-10-17T15:36:41.189Z,22.98
2022-10-17T15:39:09.844Z,23.75
2022-10-17T15:41:36.648Z,23.75
2022-10-17T15:44:03.903Z,23.08
2022-10-17T15:46:33.931Z,22.40
2022-10-17T15:49:12.327Z,23.85
2022-10-17T15:51:39.263Z,22.38
2022-10-17T15:54:06.640Z,23.30
2022-10-17T15:56:40.275Z,24.35
2022-10-17T15:59:17.954Z,23.67
2022-10-17T16:01:45.128Z,23.38
2022-10-17T16:04:15.086Z,23.30
2022-10-17T16:06:42.831Z,23.00
2022-10-17T16:09:10.172Z,24.65
2022-10-17T16:11:40.943Z,25.38
2022-10-17T16:14:12.586Z,24.70
2022-10-17T16:16:39.949Z,26.58
2022-10-17T16:19:07.309Z,26.38
2022-10-17T16:21:37.174Z,27.15
2022-10-17T16:24:04.806Z,26.88
2022-10-17T16:26:32.156Z,28.10
2022-10-17T16:29:02.739Z,26.73
2022-10-17T16:31:40.220Z,26.77
2022-10-17T16:34:08.883Z,29.13
2022-10-17T16:36:35.710Z,29.15
2022-10-17T16:39:02.722Z,28.88
2022-10-17T16:41:32.621Z,28.55
2022-10-17T16:44:02.266Z,29.52
2022-10-17T16:46:30.992Z,28.77
2022-10-17T16:48:58.391Z,28.65
2022-10-17T16:51:25.850Z,27.55
2022-10-17T16:53:54.476Z,26.85
2022-10-17T16:56:23.050Z,29.15
2022-10-17T16:58:50.629Z,28.60
2022-10-17T17:01:20.213Z,29.15
2022-10-17T17:03:47.812Z,29.92
2022-10-17T17:06:20.756Z,29.38
2022-10-17T17:08:47.832Z,32.08
2022-10-17T17:11:17.435Z,32.03
2022-10-17T17:13:44.675Z,31.73
2022-10-17T17:16:14.154Z,29.30
2022-10-17T17:18:41.738Z,28.70
2022-10-17T17:21:10.205Z,32.20
2022-10-17T17:23:39.727Z,31.33
2022-10-17T17:26:15.686Z,32.25
2022-10-17T17:28:43.176Z,30.02
2022-10-17T17:31:18.117Z,30.23
2022-10-17T17:33:46.824Z,31.13
2022-10-17T17:36:19.160Z,33.13
2022-10-17T17:38:47.234Z,30.02
2022-10-17T17:41:16.329Z,32.78
2022-10-17T17:43:45.162Z,30.58
2022-10-17T17:46:13.421Z,33.28
2022-10-17T17:48:41.671Z,33.50
2022-10-17T17:51:11.733Z,34.25
2022-10-17T17:53:39.595Z,34.53
2022-10-17T17:56:10.142Z,34.38
2022-10-17T17:58:37.443Z,34.22
2022-10-17T18:01:18.097Z,36.15
2022-10-17T18:03:45.573Z,32.17
2022-10-17T18:06:13.202Z,35.72
2022-10-17T18:08:40.101Z,41.95
2022-10-17T18:11:06.970Z,39.00
2022-10-17T18:13:33.862Z,37.72
2022-10-17T18:16:02.126Z,38.97
2022-10-17T18:18:30.537Z,38.03
2022-10-17T18:21:01.301Z,38.70
2022-10-17T18:23:28.101Z,39.55
2022-10-17T18:26:01.055Z,38.75
2022-10-17T18:28:28.187Z,35.45
2022-10-17T18:30:55.287Z,35.30
2022-10-17T18:33:22.240Z,35.30
2022-10-17T18:35:49.114Z,36.10
2022-10-17T18:38:16.023Z,36.13
2022-10-17T18:40:45.030Z,35.63
2022-10-17T18:43:14.114Z,34.72
2022-10-17T18:45:40.963Z,34.50
2022-10-17T18:48:09.939Z,31.20
2022-10-17T18:50:39.314Z,32.20
2022-10-17T18:53:06.178Z,33.80
2022-10-17T18:55:33.229Z,34.30
2022-10-17T18:58:00.724Z,33.83
2022-10-17T19:00:27.575Z,36.20
2022-10-17T19:02:54.396Z,36.25
2022-10-17T19:05:21.323Z,36.95
2022-10-17T19:07:48.178Z,37.33
2022-10-17T19:10:14.995Z,34.67
2022-10-17T19:12:41.834Z,37.17
2022-10-17T19:15:09.268Z,38.28
2022-10-17T19:17:36.061Z,39.40
2022-10-17T19:20:02.979Z,38.15
2022-10-17T19:22:31.280Z,38.85
2022-10-17T19:24:58.030Z,38.38
2022-10-17T19:27:24.854Z,37.22
2022-10-17T19:29:51.672Z,35.58
2022-10-17T19:32:20.747Z,36.15
2022-10-17T19:34:49.858Z,35.38
2022-10-17T19:37:16.905Z,39.38
2022-10-17T19:39:43.722Z,39.72
2022-10-17T19:42:10.962Z,39.13
2022-10-17T19:44:38.094Z,41.28
2022-10-17T19:47:04.915Z,40.17
2022-10-17T19:49:31.732Z,39.47
2022-10-17T19:51:58.921Z,42.13
2022-10-17T19:54:25.705Z,37.10
2022-10-17T19:56:52.580Z,40.85
2022-10-17T19:59:19.568Z,39.40
2022-10-17T20:01:46.510Z,40.33
2022-10-17T20:04:13.729Z,40.90
2022-10-17T20:06:41.720Z,41.58
2022-10-17T20:09:12.423Z,41.50
2022-10-17T20:11:42.860Z,42.47
2022-10-17T20:14:09.694Z,43.08
2022-10-17T20:16:37.098Z,38.50
2022-10-17T20:19:10.263Z,40.85
2022-10-17T20:21:39.609Z,41.40
2022-10-17T20:24:09.782Z,42.08
2022-10-17T20:26:38.772Z,39.72
2022-10-17T20:29:11.712Z,42.47
2022-10-17T20:31:39.589Z,42.70
2022-10-17T20:34:06.558Z,44.03
2022-10-17T20:36:37.424Z,44.40
2022-10-17T20:39:05.672Z,42.63
2022-10-17T20:41:32.702Z,42.03
2022-10-17T20:43:59.519Z,43.40
2022-10-17T20:49:16.448Z,44.60
2022-10-17T20:51:44.072Z,45.50
2022-10-17T20:54:11.785Z,46.03
2022-10-17T20:56:38.802Z,45.35
2022-10-17T20:59:10.496Z,43.03
2022-10-17T21:01:37.454Z,45.38
2022-10-17T21:06:53.459Z,44.90
2022-10-17T21:09:20.879Z,46.53
2022-10-17T21:11:51.239Z,46.35
2022-10-17T21:14:18.797Z,47.65
2022-10-17T21:16:45.592Z,47.70
2022-10-17T21:19:12.746Z,44.65
2022-10-17T21:21:43.534Z,45.05
2022-10-17T21:24:14.275Z,46.28
2022-10-17T21:26:42.865Z,46.13
2022-10-17T21:29:11.707Z,45.42
2022-10-17T21:31:40.973Z,44.72
2022-10-17T21:34:10.717Z,46.95
2022-10-17T21:36:37.578Z,47.03
2022-10-17T21:39:05.419Z,49.63
2022-10-17T21:41:32.729Z,48.40
2022-10-17T21:44:07.188Z,46.22
2022-10-17T21:46:34.382Z,46.25
2022-10-17T21:49:01.469Z,47.15
2022-10-17T21:51:28.686Z,47.17
2022-10-17T21:53:56.972Z,47.75
2022-10-17T21:56:28.175Z,49.28
2022-10-17T21:58:56.560Z,44.80
2022-10-17T22:01:29.034Z,45.80
2022-10-17T22:03:58.276Z,47.70
2022-10-17T22:06:43.247Z,48.30
2022-10-17T22:09:17.247Z,47.92
2022-10-17T22:11:49.018Z,48.92
2022-10-17T22:14:17.757Z,46.88
2022-10-17T22:16:46.405Z,48.58
2022-10-17T22:19:17.419Z,47.55
2022-10-17T22:21:44.511Z,46.10
2022-10-17T22:24:13.693Z,46.97
2022-10-17T22:26:40.902Z,46.95
2022-10-17T22:29:08.918Z,47.75
2022-10-17T22:31:36.787Z,43.83
2022-10-17T22:34:05.532Z,46.05
2022-10-17T22:36:33.674Z,45.17
2022-10-17T22:39:00.515Z,44.65
2022-10-17T22:41:27.318Z,44.92
2022-10-17T22:43:54.106Z,46.30
2022-10-17T22:46:20.881Z,47.58
2022-10-17T22:48:47.648Z,46.30
2022-10-17T22:51:15.022Z,49.30
2022-10-17T22:53:42.007Z,48.28
2022-10-17T22:56:17.851Z,49.25
2022-10-17T22:58:45.317Z,48.97
2022-10-17T23:01:18.677Z,49.83
2022-10-17T23:03:45.514Z,47.83
2022-10-17T23:06:12.869Z,48.83
2022-10-17T23:08:40.134Z,47.17
2022-10-17T23:11:07.478Z,49.55
2022-10-17T23:13:35.008Z,48.97
2022-10-17T23:16:02.023Z,48.05
2022-10-17T23:18:28.807Z,49.42
2022-10-17T23:20:55.650Z,50.60
2022-10-17T23:23:23.050Z,50.83
2022-10-17T23:25:50.534Z,51.42
2022-10-17T23:28:17.685Z,50.75
2022-10-17T23:30:44.885Z,50.53
2022-10-17T23:33:13.582Z,50.03
2022-10-17T23:35:40.629Z,50.13
2022-10-17T23:38:07.444Z,49.80
2022-10-17T23:40:35.373Z,47.58
2022-10-17T23:43:02.918Z,48.88
2022-10-17T23:45:33.422Z,50.05
2022-10-17T23:48:03.045Z,49.92
2022-10-17T23:50:29.789Z,50.70
2022-10-17T23:52:56.525Z,48.22
2022-10-17T23:55:23.357Z,49.47
2022-10-17T23:57:50.170Z,48.83
